sensor_id;sensor_type;location;lat;lon;timestamp;temperature;humidity
27747;DHT22;15138;51.012;4.692;2023-05-13T10:10:13;27.90;99.90
27747;DHT22;15138;51.012;4.692;2023-05-13T10:12:42;27.90;99.90
27747;DHT22;15138;51.012;4.692;2023-05-13T10:15:10;28.10;99.90
27747;DHT22;15138;51.012;4.692;2023-05-13T10:17:38;27.80;99.90
27747;DHT22;15138;51.012;4.692;2023-05-13T10:20:08;27.70;99.90
27747;DHT22;15138;51.012;4.692;2023-05-13T10:22:37;28.30;99.90
27747;DHT22;15138;51.012;4.692;2023-05-13T10:25:06;28.80;99.90
27747;DHT22;15138;51.012;4.692;2023-05-13T10:27:37;29.10;99.90
27747;DHT22;15138;51.012;4.692;2023-05-13T10:30:06;29.10;99.90
27747;DHT22;15138;51.012;4.692;2023-05-13T10:32:37;29.10;99.90
27747;DHT22;15138;51.012;4.692;2023-05-13T10:35:09;28.70;99.90
27747;DHT22;15138;51.012;4.692;2023-05-13T10:37:55;28.50;99.90
27747;DHT22;15138;51.012;4.692;2023-05-13T15:16:11;28.80;21.90
27747;DHT22;15138;51.012;4.692;2023-05-13T15:18:40;28.90;35.30
27747;DHT22;15138;51.012;4.692;2023-05-13T15:21:08;29.00;36.80
27747;DHT22;15138;51.012;4.692;2023-05-13T15:23:36;28.80;42.80
27747;DHT22;15138;51.012;4.692;2023-05-13T15:26:05;28.80;39.30
27747;DHT22;15138;51.012;4.692;2023-05-13T15:28:33;28.40;41.80
27747;DHT22;15138;51.012;4.692;2023-05-13T15:31:02;28.10;38.60
27747;DHT22;15138;51.012;4.692;2023-05-13T15:33:30;27.60;41.30
27747;DHT22;15138;51.012;4.692;2023-05-13T15:35:58;27.10;43.90
27747;DHT22;15138;51.012;4.692;2023-05-13T15:38:27;27.00;38.70
27747;DHT22;15138;51.012;4.692;2023-05-13T15:40:55;27.20;40.70
27747;DHT22;15138;51.012;4.692;2023-05-13T15:43:24;27.20;44.30
27747;DHT22;15138;51.012;4.692;2023-05-13T15:45:53;27.20;38.30
27747;DHT22;15138;51.012;4.692;2023-05-13T15:48:21;27.40;47.20
27747;DHT22;15138;51.012;4.692;2023-05-13T15:50:50;26.90;27.60
27747;DHT22;15138;51.012;4.692;2023-05-13T15:53:18;26.90;39.00
27747;DHT22;15138;51.012;4.692;2023-05-13T15:55:46;26.90;41.10
27747;DHT22;15138;51.012;4.692;2023-05-13T15:58:14;26.80;43.40
27747;DHT22;15138;51.012;4.692;2023-05-13T16:00:44;27.10;35.30
27747;DHT22;15138;51.012;4.692;2023-05-13T16:03:12;27.10;48.80
27747;DHT22;15138;51.012;4.692;2023-05-13T16:08:09;27.00;37.80
27747;DHT22;15138;51.012;4.692;2023-05-13T16:10:37;27.10;50.40
27747;DHT22;15138;51.012;4.692;2023-05-13T16:13:06;27.20;37.30
27747;DHT22;15138;51.012;4.692;2023-05-13T16:15:34;27.30;51.30
27747;DHT22;15138;51.012;4.692;2023-05-13T16:18:04;27.40;56.80
27747;DHT22;15138;51.012;4.692;2023-05-13T16:20:32;27.40;51.70
27747;DHT22;15138;51.012;4.692;2023-05-13T16:23:01;27.30;48.20
27747;DHT22;15138;51.012;4.692;2023-05-13T16:25:29;27.10;38.00
27747;DHT22;15138;51.012;4.692;2023-05-13T16:27:57;27.20;55.70
27747;DHT22;15138;51.012;4.692;2023-05-13T16:30:25;27.20;53.50
27747;DHT22;15138;51.012;4.692;2023-05-13T16:32:53;27.20;53.20
27747;DHT22;15138;51.012;4.692;2023-05-13T16:35:22;26.90;52.90
27747;DHT22;15138;51.012;4.692;2023-05-13T16:37:51;26.80;50.50
27747;DHT22;15138;51.012;4.692;2023-05-13T16:40:19;26.40;52.70
27747;DHT22;15138;51.012;4.692;2023-05-13T16:42:47;26.10;55.10
27747;DHT22;15138;51.012;4.692;2023-05-13T16:45:15;26.00;55.50
27747;DHT22;15138;51.012;4.692;2023-05-13T16:47:43;25.90;55.40
27747;DHT22;15138;51.012;4.692;2023-05-13T16:50:12;25.90;48.20
27747;DHT22;15138;51.012;4.692;2023-05-13T16:52:41;25.40;41.80
27747;DHT22;15138;51.012;4.692;2023-05-13T16:55:09;25.30;37.30
27747;DHT22;15138;51.012;4.692;2023-05-13T16:57:37;25.30;40.80
27747;DHT22;15138;51.012;4.692;2023-05-13T17:00:06;25.40;46.20
27747;DHT22;15138;51.012;4.692;2023-05-13T17:02:35;25.80;50.80
27747;DHT22;15138;51.012;4.692;2023-05-13T17:05:03;26.00;39.70
27747;DHT22;15138;51.012;4.692;2023-05-13T17:07:32;26.00;32.80
27747;DHT22;15138;51.012;4.692;2023-05-13T17:10:01;25.70;35.40
27747;DHT22;15138;51.012;4.692;2023-05-13T17:12:29;25.40;36.10
27747;DHT22;15138;51.012;4.692;2023-05-13T17:14:58;25.30;38.70
27747;DHT22;15138;51.012;4.692;2023-05-13T17:17:26;25.00;42.70
27747;DHT22;15138;51.012;4.692;2023-05-13T17:19:54;24.10;29.60
27747;DHT22;15138;51.012;4.692;2023-05-13T17:22:23;23.30;29.70
27747;DHT22;15138;51.012;4.692;2023-05-13T17:24:51;23.10;37.50
27747;DHT22;15138;51.012;4.692;2023-05-13T17:27:20;23.40;38.50
27747;DHT22;15138;51.012;4.692;2023-05-13T17:29:49;23.40;36.70
27747;DHT22;15138;51.012;4.692;2023-05-13T17:32:17;23.30;36.20
27747;DHT22;15138;51.012;4.692;2023-05-13T17:34:45;23.30;36.20
27747;DHT22;15138;51.012;4.692;2023-05-13T17:37:13;23.40;38.80
27747;DHT22;15138;51.012;4.692;2023-05-13T17:42:09;23.10;1.00
27747;DHT22;15138;51.012;4.692;2023-05-13T17:44:39;23.00;28.60
27747;DHT22;15138;51.012;4.692;2023-05-13T17:47:07;23.00;40.00
27747;DHT22;15138;51.012;4.692;2023-05-13T17:49:35;23.00;42.50
27747;DHT22;15138;51.012;4.692;2023-05-13T17:52:04;22.70;41.50
27747;DHT22;15138;51.012;4.692;2023-05-13T17:54:32;22.40;43.20
27747;DHT22;15138;51.012;4.692;2023-05-13T17:57:00;22.40;39.70
27747;DHT22;15138;51.012;4.692;2023-05-13T17:59:28;22.00;46.20
27747;DHT22;15138;51.012;4.692;2023-05-13T18:01:58;21.60;41.80
27747;DHT22;15138;51.012;4.692;2023-05-13T18:04:26;21.40;43.30
27747;DHT22;15138;51.012;4.692;2023-05-13T18:06:54;21.50;1.00
27747;DHT22;15138;51.012;4.692;2023-05-13T18:09:22;21.60;44.70
27747;DHT22;15138;51.012;4.692;2023-05-13T18:11:50;21.70;45.70
27747;DHT22;15138;51.012;4.692;2023-05-13T18:14:18;21.70;43.90
27747;DHT22;15138;51.012;4.692;2023-05-13T18:16:46;21.80;44.50
27747;DHT22;15138;51.012;4.692;2023-05-13T18:19:16;21.80;44.40
27747;DHT22;15138;51.012;4.692;2023-05-13T18:21:44;21.60;42.20
27747;DHT22;15138;51.012;4.692;2023-05-13T18:24:12;21.60;44.30
27747;DHT22;15138;51.012;4.692;2023-05-13T18:26:40;21.60;44.50
27747;DHT22;15138;51.012;4.692;2023-05-13T18:29:08;21.60;45.80
27747;DHT22;15138;51.012;4.692;2023-05-13T18:31:36;21.60;46.80
27747;DHT22;15138;51.012;4.692;2023-05-13T18:34:04;21.70;48.00
27747;DHT22;15138;51.012;4.692;2023-05-13T18:36:34;21.80;48.70
27747;DHT22;15138;51.012;4.692;2023-05-13T18:39:02;21.80;48.20
27747;DHT22;15138;51.012;4.692;2023-05-13T18:41:30;21.70;49.70
27747;DHT22;15138;51.012;4.692;2023-05-13T18:43:58;21.80;56.40
27747;DHT22;15138;51.012;4.692;2023-05-13T18:46:26;21.70;54.30
27747;DHT22;15138;51.012;4.692;2023-05-13T18:48:55;21.70;57.90
27747;DHT22;15138;51.012;4.692;2023-05-13T18:51:24;21.70;61.00
27747;DHT22;15138;51.012;4.692;2023-05-13T18:53:54;21.60;65.50
27747;DHT22;15138;51.012;4.692;2023-05-13T18:56:22;21.70;69.90
27747;DHT22;15138;51.012;4.692;2023-05-13T18:58:50;21.60;77.00
27747;DHT22;15138;51.012;4.692;2023-05-13T19:01:18;21.70;81.30
27747;DHT22;15138;51.012;4.692;2023-05-13T19:03:47;21.70;93.40
27747;DHT22;15138;51.012;4.692;2023-05-13T19:06:15;21.70;82.70
27747;DHT22;15138;51.012;4.692;2023-05-13T19:08:43;21.70;85.40
27747;DHT22;15138;51.012;4.692;2023-05-13T19:11:13;21.70;89.00
27747;DHT22;15138;51.012;4.692;2023-05-13T19:13:41;21.70;91.70
27747;DHT22;15138;51.012;4.692;2023-05-13T19:16:13;21.30;90.20
27747;DHT22;15138;51.012;4.692;2023-05-13T19:18:42;20.90;86.00
27747;DHT22;15138;51.012;4.692;2023-05-13T19:21:10;20.80;82.40
27747;DHT22;15138;51.012;4.692;2023-05-13T19:23:38;20.80;86.70
27747;DHT22;15138;51.012;4.692;2023-05-13T19:26:06;20.80;84.50
27747;DHT22;15138;51.012;4.692;2023-05-13T19:28:37;20.80;82.80
27747;DHT22;15138;51.012;4.692;2023-05-13T19:31:05;20.70;87.20
27747;DHT22;15138;51.012;4.692;2023-05-13T19:33:34;20.30;79.30
27747;DHT22;15138;51.012;4.692;2023-05-13T19:36:03;20.30;81.20
27747;DHT22;15138;51.012;4.692;2023-05-13T19:38:31;20.10;79.00
27747;DHT22;15138;51.012;4.692;2023-05-13T19:40:59;20.00;81.50
27747;DHT22;15138;51.012;4.692;2023-05-13T19:43:27;19.90;81.90
27747;DHT22;15138;51.012;4.692;2023-05-13T19:45:57;19.80;83.20
27747;DHT22;15138;51.012;4.692;2023-05-13T19:48:25;19.70;82.90
27747;DHT22;15138;51.012;4.692;2023-05-13T19:50:55;19.60;78.70
27747;DHT22;15138;51.012;4.692;2023-05-13T19:53:25;19.60;78.80
27747;DHT22;15138;51.012;4.692;2023-05-13T19:55:53;19.50;77.90
27747;DHT22;15138;51.012;4.692;2023-05-13T19:58:22;19.60;76.30
27747;DHT22;15138;51.012;4.692;2023-05-13T20:00:50;19.60;72.70
27747;DHT22;15138;51.012;4.692;2023-05-13T20:03:20;19.70;71.10
27747;DHT22;15138;51.012;4.692;2023-05-13T20:05:49;19.70;73.00
27747;DHT22;15138;51.012;4.692;2023-05-13T20:08:17;19.70;75.20
27747;DHT22;15138;51.012;4.692;2023-05-13T20:10:46;19.70;79.80
27747;DHT22;15138;51.012;4.692;2023-05-13T20:13:14;19.70;77.50
27747;DHT22;15138;51.012;4.692;2023-05-13T20:15:42;19.70;76.80
27747;DHT22;15138;51.012;4.692;2023-05-13T20:18:11;19.70;76.40
27747;DHT22;15138;51.012;4.692;2023-05-13T20:20:40;19.70;77.80
27747;DHT22;15138;51.012;4.692;2023-05-13T20:23:08;19.70;77.40
27747;DHT22;15138;51.012;4.692;2023-05-13T20:25:40;19.60;76.90
27747;DHT22;15138;51.012;4.692;2023-05-13T20:28:08;19.50;77.30
27747;DHT22;15138;51.012;4.692;2023-05-13T20:30:39;19.50;79.40
27747;DHT22;15138;51.012;4.692;2023-05-13T20:33:07;19.40;77.80
27747;DHT22;15138;51.012;4.692;2023-05-13T20:35:35;19.30;77.10
27747;DHT22;15138;51.012;4.692;2023-05-13T20:38:05;19.30;79.70
27747;DHT22;15138;51.012;4.692;2023-05-13T20:40:33;19.20;92.20
27747;DHT22;15138;51.012;4.692;2023-05-13T20:43:01;19.10;81.60
27747;DHT22;15138;51.012;4.692;2023-05-13T21:40:06;18.00;1.00
27747;DHT22;15138;51.012;4.692;2023-05-13T21:42:34;18.00;1.00
27747;DHT22;15138;51.012;4.692;2023-05-13T21:45:02;17.90;99.90
27747;DHT22;15138;51.012;4.692;2023-05-13T21:47:32;17.60;99.90
27747;DHT22;15138;51.012;4.692;2023-05-13T21:50:00;17.60;99.90
27747;DHT22;15138;51.012;4.692;2023-05-13T21:52:28;17.60;99.90
27747;DHT22;15138;51.012;4.692;2023-05-13T21:54:56;17.60;99.90
27747;DHT22;15138;51.012;4.692;2023-05-13T21:57:24;17.50;99.90
27747;DHT22;15138;51.012;4.692;2023-05-13T21:59:53;17.50;99.90
27747;DHT22;15138;51.012;4.692;2023-05-13T22:02:21;17.40;99.90
27747;DHT22;15138;51.012;4.692;2023-05-13T22:04:50;17.40;99.90
27747;DHT22;15138;51.012;4.692;2023-05-13T22:07:18;17.40;99.90
27747;DHT22;15138;51.012;4.692;2023-05-13T22:09:47;17.30;99.90
27747;DHT22;15138;51.012;4.692;2023-05-13T22:12:16;17.30;99.90
27747;DHT22;15138;51.012;4.692;2023-05-13T22:14:44;17.20;99.90
27747;DHT22;15138;51.012;4.692;2023-05-13T22:17:12;17.20;99.90
27747;DHT22;15138;51.012;4.692;2023-05-13T22:19:40;17.10;99.90
27747;DHT22;15138;51.012;4.692;2023-05-13T22:22:10;17.10;99.90
27747;DHT22;15138;51.012;4.692;2023-05-13T22:24:38;17.00;99.90
27747;DHT22;15138;51.012;4.692;2023-05-13T22:27:07;17.00;99.90
27747;DHT22;15138;51.012;4.692;2023-05-13T22:29:35;17.00;99.90
27747;DHT22;15138;51.012;4.692;2023-05-13T22:32:04;17.00;99.90
27747;DHT22;15138;51.012;4.692;2023-05-13T22:34:32;17.00;99.90
27747;DHT22;15138;51.012;4.692;2023-05-13T22:37:00;17.00;99.90
27747;DHT22;15138;51.012;4.692;2023-05-13T22:39:30;16.90;99.90
27747;DHT22;15138;51.012;4.692;2023-05-13T22:41:58;16.90;99.90
27747;DHT22;15138;51.012;4.692;2023-05-13T22:44:26;16.80;99.90
27747;DHT22;15138;51.012;4.692;2023-05-13T22:46:54;16.80;99.90
27747;DHT22;15138;51.012;4.692;2023-05-13T22:49:22;16.70;99.90
27747;DHT22;15138;51.012;4.692;2023-05-13T22:51:50;16.70;99.90
27747;DHT22;15138;51.012;4.692;2023-05-13T22:54:18;16.60;99.90
27747;DHT22;15138;51.012;4.692;2023-05-13T22:56:48;16.50;99.90
27747;DHT22;15138;51.012;4.692;2023-05-13T22:59:16;16.50;99.90
27747;DHT22;15138;51.012;4.692;2023-05-13T23:01:44;16.40;99.90
27747;DHT22;15138;51.012;4.692;2023-05-13T23:04:12;16.30;99.90
27747;DHT22;15138;51.012;4.692;2023-05-13T23:06:40;16.10;99.90
27747;DHT22;15138;51.012;4.692;2023-05-13T23:09:08;16.10;99.90
27747;DHT22;15138;51.012;4.692;2023-05-13T23:11:36;16.00;99.90
27747;DHT22;15138;51.012;4.692;2023-05-13T23:14:06;16.10;99.90
27747;DHT22;15138;51.012;4.692;2023-05-13T23:16:35;16.10;99.90
27747;DHT22;15138;51.012;4.692;2023-05-13T23:19:03;16.10;99.90
27747;DHT22;15138;51.012;4.692;2023-05-13T23:21:31;16.00;99.90
27747;DHT22;15138;51.012;4.692;2023-05-13T23:23:59;16.00;99.90
27747;DHT22;15138;51.012;4.692;2023-05-13T23:26:28;16.10;99.90
27747;DHT22;15138;51.012;4.692;2023-05-13T23:28:56;16.00;99.90
27747;DHT22;15138;51.012;4.692;2023-05-13T23:31:25;16.00;99.90
27747;DHT22;15138;51.012;4.692;2023-05-13T23:33:53;16.00;99.90
27747;DHT22;15138;51.012;4.692;2023-05-13T23:36:21;16.00;99.90
27747;DHT22;15138;51.012;4.692;2023-05-13T23:38:49;16.00;99.90
27747;DHT22;15138;51.012;4.692;2023-05-13T23:41:17;16.00;99.90
27747;DHT22;15138;51.012;4.692;2023-05-13T23:43:45;16.00;99.90
27747;DHT22;15138;51.012;4.692;2023-05-13T23:46:13;16.00;99.90
27747;DHT22;15138;51.012;4.692;2023-05-13T23:48:43;15.90;99.90
27747;DHT22;15138;51.012;4.692;2023-05-13T23:51:11;15.90;99.90
27747;DHT22;15138;51.012;4.692;2023-05-13T23:53:39;15.90;99.90
27747;DHT22;15138;51.012;4.692;2023-05-13T23:56:07;15.90;99.90
27747;DHT22;15138;51.012;4.692;2023-05-13T23:58:35;15.90;99.90
